createdAt,value
2023-05-09T00:00:07.930Z,8.76
2023-05-09T00:00:38.037Z,8.76
2023-05-09T00:01:09.141Z,8.76
2023-05-09T00:01:40.565Z,8.76
2023-05-09T00:02:11.563Z,8.76
2023-05-09T00:02:42.531Z,8.76
2023-05-09T00:03:13.501Z,8.76
2023-05-09T00:03:44.477Z,8.76
2023-05-09T00:04:15.410Z,8.76
2023-05-09T00:04:46.133Z,8.86
2023-05-09T00:05:17.714Z,8.86
2023-05-09T00:05:48.385Z,8.86
2023-05-09T00:06:19.412Z,8.86
2023-05-09T00:06:50.215Z,8.86
2023-05-09T00:07:22.154Z,8.86
2023-05-09T00:07:52.486Z,8.86
2023-05-09T00:08:23.256Z,8.86
2023-05-09T00:08:54.452Z,8.86
2023-05-09T00:09:25.106Z,8.86
2023-05-09T00:09:56.214Z,8.76
2023-05-09T00:10:27.590Z,8.76
2023-05-09T00:10:58.490Z,8.76
2023-05-09T00:11:29.116Z,8.76
2023-05-09T00:12:00.149Z,8.76
2023-05-09T00:12:31.648Z,8.76
2023-05-09T00:13:03.634Z,8.76
2023-05-09T00:13:33.480Z,8.76
2023-05-09T00:14:05.080Z,8.76
2023-05-09T00:14:35.115Z,8.76
2023-05-09T00:15:06.872Z,8.76
2023-05-09T00:15:37.107Z,8.76
2023-05-09T00:16:08.454Z,8.76
2023-05-09T00:16:39.363Z,8.76
2023-05-09T00:17:10.351Z,8.76
2023-05-09T00:17:41.218Z,8.76
2023-05-09T00:18:12.422Z,8.86
2023-05-09T00:18:43.423Z,8.76
2023-05-09T00:19:14.094Z,8.76
2023-05-09T00:19:45.050Z,8.76
2023-05-09T00:20:16.680Z,8.76
2023-05-09T00:20:47.109Z,8.76
2023-05-09T00:21:18.436Z,8.76
2023-05-09T00:21:49.090Z,8.76
2023-05-09T00:22:20.202Z,8.66
2023-05-09T00:22:51.600Z,8.66
2023-05-09T00:23:22.368Z,8.66
2023-05-09T00:23:53.372Z,8.66
2023-05-09T00:24:24.714Z,8.56
2023-05-09T00:24:55.114Z,8.46
2023-05-09T00:25:26.920Z,8.46
2023-05-09T00:25:57.416Z,8.46
2023-05-09T00:26:28.304Z,8.36
2023-05-09T00:26:59.482Z,8.36
2023-05-09T00:27:30.890Z,8.36
2023-05-09T00:28:01.303Z,8.36
2023-05-09T00:28:32.616Z,8.26
2023-05-09T00:29:03.204Z,8.26
2023-05-09T00:29:34.315Z,8.26
2023-05-09T00:30:06.022Z,8.26
2023-05-09T00:30:36.289Z,8.26
2023-05-09T00:31:07.126Z,8.26
2023-05-09T00:31:38.464Z,8.26
2023-05-09T00:32:09.498Z,8.26
2023-05-09T00:32:40.767Z,8.26
2023-05-09T00:33:11.479Z,8.26
2023-05-09T00:33:42.632Z,8.26
2023-05-09T00:34:13.551Z,8.26
2023-05-09T00:34:44.117Z,8.26
2023-05-09T00:35:16.113Z,8.26
2023-05-09T00:35:46.088Z,8.26
2023-05-09T00:36:17.142Z,8.26
2023-05-09T00:36:48.284Z,8.26
2023-05-09T00:37:19.205Z,8.26
2023-05-09T00:37:50.180Z,8.26
2023-05-09T00:38:21.310Z,8.16
2023-05-09T00:38:52.502Z,8.16
2023-05-09T00:39:23.342Z,8.16
2023-05-09T00:39:54.535Z,8.06
2023-05-09T00:40:25.948Z,8.06
2023-05-09T00:40:56.435Z,7.96
2023-05-09T00:41:27.410Z,7.96
2023-05-09T00:41:58.712Z,7.96
2023-05-09T00:42:29.502Z,7.96
2023-05-09T00:43:00.624Z,7.96
2023-05-09T00:43:31.489Z,7.96
2023-05-09T00:44:02.271Z,7.96
2023-05-09T00:44:35.033Z,7.96
2023-05-09T00:45:05.307Z,7.96
2023-05-09T00:45:36.621Z,7.96
2023-05-09T00:46:06.408Z,7.96
2023-05-09T00:46:37.337Z,7.96
2023-05-09T00:47:08.624Z,7.96
2023-05-09T00:47:39.937Z,8.06
2023-05-09T00:48:10.681Z,8.06
2023-05-09T00:48:41.425Z,8.06
2023-05-09T00:49:12.255Z,8.06
2023-05-09T00:49:43.535Z,8.06
2023-05-09T00:50:14.868Z,8.06
2023-05-09T00:50:45.874Z,8.06
2023-05-09T00:51:16.613Z,8.06
2023-05-09T00:51:47.460Z,8.06
2023-05-09T00:52:18.606Z,8.06
2023-05-09T00:52:49.657Z,8.06
2023-05-09T00:53:20.259Z,8.06
2023-05-09T00:53:51.273Z,8.06
2023-05-09T00:54:22.229Z,8.16
2023-05-09T00:54:53.443Z,8.16
2023-05-09T00:55:25.137Z,8.16
2023-05-09T00:55:55.264Z,8.16
2023-05-09T00:56:26.353Z,8.16
2023-05-09T00:56:57.452Z,8.16
2023-05-09T00:57:28.306Z,8.16
2023-05-09T00:57:59.398Z,8.16
2023-05-09T00:58:30.659Z,8.16
2023-05-09T00:59:01.529Z,8.16
2023-05-09T00:59:32.541Z,8.16
2023-05-09T01:00:03.998Z,8.16
2023-05-09T01:00:34.547Z,8.16
2023-05-09T01:01:05.282Z,8.16
2023-05-09T01:01:36.271Z,8.16
2023-05-09T01:02:07.455Z,8.16
2023-05-09T01:02:38.869Z,8.16
2023-05-09T01:03:09.663Z,8.16
2023-05-09T01:03:40.374Z,8.16
2023-05-09T01:04:11.301Z,8.16
2023-05-09T01:04:42.314Z,8.16
2023-05-09T01:05:14.337Z,8.16
2023-05-09T01:05:44.383Z,8.16
2023-05-09T01:06:15.434Z,8.16
2023-05-09T01:06:46.556Z,8.16
2023-05-09T01:07:17.313Z,8.16
2023-05-09T01:07:48.552Z,8.16
2023-05-09T01:08:19.616Z,8.16
2023-05-09T01:08:50.671Z,8.16
2023-05-09T01:09:21.383Z,8.16
2023-05-09T01:09:52.416Z,8.06
2023-05-09T01:10:24.004Z,8.06
2023-05-09T01:10:54.780Z,8.06
2023-05-09T01:11:25.618Z,8.06
2023-05-09T01:11:56.513Z,8.06
2023-05-09T01:12:27.404Z,8.06
2023-05-09T01:12:58.404Z,8.06
2023-05-09T01:13:29.362Z,8.06
2023-05-09T01:14:00.322Z,8.06
2023-05-09T01:14:31.479Z,8.06
2023-05-09T01:15:03.041Z,7.96
2023-05-09T01:15:33.315Z,7.96
2023-05-09T01:16:05.875Z,7.96
2023-05-09T01:16:35.435Z,7.96
2023-05-09T01:17:07.302Z,7.96
2023-05-09T01:17:37.802Z,7.96
2023-05-09T01:18:08.324Z,7.96
2023-05-09T01:18:39.511Z,7.96
2023-05-09T01:19:10.583Z,7.96
2023-05-09T01:19:41.738Z,7.96
2023-05-09T01:20:13.026Z,7.96
2023-05-09T01:20:43.671Z,7.96
2023-05-09T01:21:14.377Z,7.96
2023-05-09T01:21:45.346Z,7.96
2023-05-09T01:22:16.285Z,7.96
2023-05-09T01:22:47.442Z,7.86
2023-05-09T01:23:18.357Z,7.86
2023-05-09T01:23:49.552Z,7.86
2023-05-09T01:24:20.424Z,7.86
2023-05-09T01:24:53.315Z,7.86
2023-05-09T01:25:22.690Z,7.86
2023-05-09T01:25:53.580Z,7.86
2023-05-09T01:26:24.300Z,7.86
2023-05-09T01:26:55.370Z,7.86
2023-05-09T01:27:26.527Z,7.86
2023-05-09T01:27:57.382Z,7.86
2023-05-09T01:28:28.403Z,7.86
2023-05-09T01:28:59.616Z,7.86
2023-05-09T01:29:30.353Z,7.86
2023-05-09T01:30:02.041Z,7.86
2023-05-09T01:30:32.841Z,7.76
2023-05-09T01:32:05.740Z,7.76
2023-05-09T01:32:36.450Z,7.76
2023-05-09T01:33:07.406Z,7.76
2023-05-09T01:33:38.418Z,7.76
2023-05-09T01:34:09.762Z,7.76
2023-05-09T01:34:40.336Z,7.76
2023-05-09T01:35:11.897Z,7.76
2023-05-09T01:35:42.794Z,7.76
2023-05-09T01:36:13.701Z,7.76
2023-05-09T01:36:44.419Z,7.66
2023-05-09T01:37:15.387Z,7.66
2023-05-09T01:37:46.372Z,7.66
2023-05-09T01:38:17.419Z,7.66
2023-05-09T01:38:48.370Z,7.66
2023-05-09T01:39:19.446Z,7.66
2023-05-09T01:39:50.423Z,7.66
2023-05-09T01:40:22.151Z,7.56
2023-05-09T01:40:52.412Z,7.56
2023-05-09T01:41:23.436Z,7.56
2023-05-09T01:41:54.460Z,7.56
2023-05-09T01:42:25.414Z,7.56
2023-05-09T01:42:56.422Z,7.56
2023-05-09T01:43:27.590Z,7.56
2023-05-09T01:43:58.430Z,7.56
2023-05-09T01:44:29.628Z,7.56
2023-05-09T01:45:01.023Z,7.56
2023-05-09T01:45:31.449Z,7.56
2023-05-09T01:46:02.965Z,7.56
2023-05-09T01:46:33.588Z,7.56
2023-05-09T01:47:04.707Z,7.56
2023-05-09T01:47:38.219Z,7.56
2023-05-09T01:48:06.834Z,7.66
2023-05-09T01:48:39.246Z,7.66
2023-05-09T01:49:08.462Z,7.66
2023-05-09T01:49:40.879Z,7.66
2023-05-09T01:50:11.288Z,7.66
2023-05-09T01:50:41.767Z,7.66
2023-05-09T01:51:12.979Z,7.66
2023-05-09T01:51:44.132Z,7.66
2023-05-09T01:52:14.853Z,7.66
2023-05-09T01:52:45.445Z,7.66
2023-05-09T01:53:16.721Z,7.66
2023-05-09T01:53:47.865Z,7.66
2023-05-09T01:54:18.820Z,7.66
2023-05-09T01:54:49.445Z,7.76
2023-05-09T01:55:21.032Z,7.76
2023-05-09T01:55:51.808Z,7.76
2023-05-09T01:56:22.520Z,7.76
2023-05-09T01:56:53.747Z,7.76
2023-05-09T01:57:24.843Z,7.76
2023-05-09T01:57:55.728Z,7.76
2023-05-09T01:58:27.001Z,7.86
2023-05-09T01:58:57.766Z,7.86
2023-05-09T01:59:28.791Z,7.86
2023-05-09T01:59:59.649Z,7.86
2023-05-09T02:00:31.118Z,7.86
2023-05-09T02:01:01.464Z,7.86
2023-05-09T02:01:32.774Z,7.86
2023-05-09T02:02:03.489Z,7.86
2023-05-09T02:02:34.614Z,7.86
2023-05-09T02:03:05.525Z,7.86
2023-05-09T02:03:36.481Z,7.86
2023-05-09T02:04:07.562Z,7.86
2023-05-09T02:04:38.693Z,7.96
2023-05-09T02:05:09.849Z,7.96
2023-05-09T02:05:40.463Z,7.96
2023-05-09T02:06:11.704Z,7.96
2023-05-09T02:06:42.735Z,7.96
2023-05-09T02:07:13.521Z,7.96
2023-05-09T02:07:44.721Z,7.96
2023-05-09T02:08:15.564Z,7.96
2023-05-09T02:08:46.602Z,7.96
2023-05-09T02:09:17.548Z,7.96
2023-05-09T02:09:48.532Z,7.96
2023-05-09T02:10:20.380Z,7.96
2023-05-09T02:10:50.674Z,7.96
2023-05-09T02:11:21.737Z,7.96
2023-05-09T02:11:52.555Z,7.96
2023-05-09T02:12:23.558Z,7.96
2023-05-09T02:12:54.776Z,7.96
2023-05-09T02:13:25.668Z,7.96
2023-05-09T02:13:56.843Z,7.96
2023-05-09T02:14:27.921Z,7.96
2023-05-09T02:14:58.756Z,7.96
2023-05-09T02:15:30.683Z,7.96
2023-05-09T02:16:00.487Z,7.96
2023-05-09T02:16:31.866Z,7.86
2023-05-09T02:17:02.954Z,7.86
2023-05-09T02:17:33.701Z,7.86
2023-05-09T02:18:04.676Z,7.86
2023-05-09T02:18:35.575Z,7.86
2023-05-09T02:19:08.677Z,7.86
2023-05-09T02:19:37.586Z,7.86
2023-05-09T02:20:11.005Z,7.86
2023-05-09T02:20:39.621Z,7.86
2023-05-09T02:21:11.931Z,7.86
2023-05-09T02:21:41.958Z,7.86
2023-05-09T02:22:12.914Z,7.86
2023-05-09T02:22:43.919Z,7.86
2023-05-09T02:23:15.046Z,7.86
2023-05-09T02:23:45.742Z,7.86
2023-05-09T02:24:17.161Z,7.86
2023-05-09T02:24:48.000Z,7.86
2023-05-09T02:25:19.015Z,7.76
2023-05-09T02:25:49.835Z,7.76
2023-05-09T02:26:20.815Z,7.76
2023-05-09T02:26:51.923Z,7.76
2023-05-09T02:27:22.864Z,7.76
2023-05-09T02:27:53.620Z,7.76
2023-05-09T02:28:24.647Z,7.76
2023-05-09T02:28:55.592Z,7.76
2023-05-09T02:29:27.163Z,7.76
2023-05-09T02:29:57.865Z,7.76
2023-05-09T02:30:29.624Z,7.76
2023-05-09T02:30:59.709Z,7.76
2023-05-09T02:31:30.874Z,7.76
2023-05-09T02:32:01.863Z,7.76
2023-05-09T02:32:32.940Z,7.66
2023-05-09T02:33:03.908Z,7.66
2023-05-09T02:33:34.601Z,7.66
2023-05-09T02:34:05.784Z,7.66
2023-05-09T02:34:36.681Z,7.66
2023-05-09T02:35:08.100Z,7.66
2023-05-09T02:35:38.724Z,7.76
2023-05-09T02:36:09.617Z,7.76
2023-05-09T02:36:40.838Z,7.76
2023-05-09T02:37:11.754Z,7.76
2023-05-09T02:37:42.838Z,7.66
2023-05-09T02:38:13.557Z,7.66
2023-05-09T02:38:44.997Z,7.66
2023-05-09T02:39:15.605Z,7.66
2023-05-09T02:39:46.611Z,7.66
2023-05-09T02:40:18.052Z,7.66
2023-05-09T02:40:49.894Z,7.66
2023-05-09T02:41:19.884Z,7.66
2023-05-09T02:41:51.075Z,7.66
2023-05-09T02:42:21.913Z,7.66
2023-05-09T02:42:52.757Z,7.66
2023-05-09T02:43:23.632Z,7.66
2023-05-09T02:43:54.701Z,7.66
2023-05-09T02:44:25.862Z,7.66
2023-05-09T02:44:56.959Z,7.76
2023-05-09T02:45:28.204Z,7.86
2023-05-09T02:45:58.682Z,7.86
2023-05-09T02:46:29.701Z,7.86
2023-05-09T02:47:01.039Z,7.76
2023-05-09T02:47:31.620Z,7.76
2023-05-09T02:48:03.128Z,7.76
2023-05-09T02:48:33.639Z,7.76
2023-05-09T02:49:04.780Z,7.76
2023-05-09T02:49:35.656Z,7.76
2023-05-09T02:50:06.978Z,7.86
2023-05-09T02:50:39.961Z,7.86
2023-05-09T02:51:09.060Z,7.86
2023-05-09T02:51:41.094Z,7.86
2023-05-09T02:52:10.950Z,7.86
2023-05-09T02:52:41.685Z,7.86
2023-05-09T02:53:12.680Z,7.86
2023-05-09T02:53:43.721Z,7.86
2023-05-09T02:54:14.919Z,7.86
2023-05-09T02:54:45.829Z,7.86
2023-05-09T02:55:17.753Z,7.76
2023-05-09T02:55:47.801Z,7.76
2023-05-09T02:56:18.705Z,7.76
2023-05-09T02:56:49.960Z,7.76
2023-05-09T02:57:20.819Z,7.76
2023-05-09T02:58:01.910Z,7.76
2023-05-09T02:58:23.078Z,7.76
2023-05-09T02:58:54.099Z,7.76
2023-05-09T02:59:25.117Z,7.76
2023-05-09T02:59:56.017Z,7.76
2023-05-09T03:00:27.349Z,7.76
2023-05-09T03:00:57.660Z,7.76
2023-05-09T03:01:28.872Z,7.76
2023-05-09T03:01:59.837Z,7.66
2023-05-09T03:02:30.803Z,7.66
2023-05-09T03:03:02.086Z,7.66
2023-05-09T03:03:32.809Z,7.66
2023-05-09T03:04:03.720Z,7.66
2023-05-09T03:04:35.113Z,7.66
2023-05-09T03:05:06.256Z,7.66
2023-05-09T03:05:36.700Z,7.66
2023-05-09T03:06:07.753Z,7.66
2023-05-09T03:06:39.338Z,7.76
2023-05-09T03:07:09.911Z,7.76
2023-05-09T03:07:41.068Z,7.76
2023-05-09T03:08:11.798Z,7.86
2023-05-09T03:08:43.124Z,7.86
2023-05-09T03:09:13.693Z,7.96
2023-05-09T03:09:45.033Z,7.96
2023-05-09T03:10:16.195Z,8.06
2023-05-09T03:10:46.637Z,8.06
2023-05-09T03:11:18.127Z,8.06
2023-05-09T03:11:49.023Z,8.06
2023-05-09T03:12:19.936Z,8.06
2023-05-09T03:12:50.803Z,8.06
2023-05-09T03:13:22.135Z,8.06
2023-05-09T03:13:53.027Z,8.06
2023-05-09T03:14:23.714Z,8.06
2023-05-09T03:14:56.158Z,8.06
2023-05-09T03:15:26.417Z,8.06
2023-05-09T03:15:56.787Z,8.06
2023-05-09T03:16:28.281Z,8.06
2023-05-09T03:16:58.803Z,8.06
2023-05-09T03:17:29.820Z,8.06
2023-05-09T03:18:00.749Z,8.06
2023-05-09T03:18:31.805Z,8.16
2023-05-09T03:19:02.922Z,8.16
2023-05-09T03:19:34.193Z,8.26
2023-05-09T03:20:05.758Z,8.26
2023-05-09T03:20:36.410Z,8.26
2023-05-09T03:21:07.057Z,8.26
2023-05-09T03:21:38.138Z,8.26
2023-05-09T03:22:11.233Z,8.26
2023-05-09T03:22:40.074Z,8.26
2023-05-09T03:23:13.084Z,8.26
2023-05-09T03:23:42.156Z,8.26
2023-05-09T03:24:13.166Z,8.26
2023-05-09T03:24:43.864Z,8.26
2023-05-09T03:25:15.751Z,8.26
2023-05-09T03:25:45.719Z,8.26
2023-05-09T03:26:17.113Z,8.26
2023-05-09T03:26:47.801Z,8.26
2023-05-09T03:27:18.970Z,8.26
2023-05-09T03:27:50.078Z,8.36
2023-05-09T03:28:21.043Z,8.36
2023-05-09T03:28:52.150Z,8.36
2023-05-09T03:29:22.844Z,8.36
2023-05-09T03:29:54.474Z,8.36
2023-05-09T03:30:25.499Z,8.36
2023-05-09T03:30:56.096Z,8.36
2023-05-09T03:31:27.261Z,8.36
2023-05-09T03:31:58.195Z,8.36
2023-05-09T03:32:29.236Z,8.36
2023-05-09T03:33:00.264Z,8.36
2023-05-09T03:33:31.080Z,8.36
2023-05-09T03:34:01.841Z,8.36
2023-05-09T03:34:32.873Z,8.46
2023-05-09T03:35:04.512Z,8.46
2023-05-09T03:35:34.793Z,8.46
2023-05-09T03:36:05.869Z,8.46
2023-05-09T03:36:37.140Z,8.46
2023-05-09T03:37:07.965Z,8.46
2023-05-09T03:37:38.887Z,8.46
2023-05-09T03:38:09.779Z,8.36
2023-05-09T03:38:41.240Z,8.36
2023-05-09T03:39:12.239Z,8.36
2023-05-09T03:39:42.858Z,8.36
2023-05-09T03:40:14.300Z,8.36
2023-05-09T03:40:45.201Z,8.36
2023-05-09T03:41:16.274Z,8.36
2023-05-09T03:41:47.076Z,8.36
2023-05-09T03:42:18.322Z,8.36
2023-05-09T03:42:48.863Z,8.36
2023-05-09T03:43:19.888Z,8.36
2023-05-09T03:43:51.094Z,8.46
2023-05-09T03:44:22.108Z,8.46
2023-05-09T03:44:53.222Z,8.46
2023-05-09T03:45:24.670Z,8.46
2023-05-09T03:45:54.881Z,8.46
2023-05-09T03:46:26.272Z,8.46
2023-05-09T03:46:57.190Z,8.46
2023-05-09T03:47:28.216Z,8.56
2023-05-09T03:47:59.191Z,8.56
2023-05-09T03:48:30.033Z,8.56
2023-05-09T03:49:00.955Z,8.56
2023-05-09T03:49:31.942Z,8.56
2023-05-09T03:50:03.308Z,8.56
2023-05-09T03:50:33.864Z,8.56
2023-05-09T03:51:05.002Z,8.56
2023-05-09T03:51:36.331Z,8.56
2023-05-09T03:52:07.012Z,8.56
2023-05-09T03:52:38.314Z,8.56
2023-05-09T03:53:08.960Z,8.56
2023-05-09T03:53:41.148Z,8.56
2023-05-09T03:54:10.986Z,8.56
2023-05-09T03:54:44.242Z,8.56
2023-05-09T03:55:13.935Z,8.46
2023-05-09T03:55:45.130Z,8.46
2023-05-09T03:56:14.970Z,8.46
2023-05-09T03:56:45.980Z,8.46
2023-05-09T03:57:17.364Z,8.46
2023-05-09T03:57:48.361Z,8.46
2023-05-09T03:58:19.226Z,8.46
2023-05-09T03:58:50.383Z,8.46
2023-05-09T03:59:21.325Z,8.46
2023-05-09T03:59:52.204Z,8.46
2023-05-09T04:00:23.793Z,8.46
2023-05-09T04:00:54.121Z,8.46
2023-05-09T04:01:24.965Z,8.46
2023-05-09T04:01:55.935Z,8.46
2023-05-09T04:02:27.132Z,8.46
2023-05-09T04:02:58.090Z,8.46
2023-05-09T04:03:29.399Z,8.46
2023-05-09T04:04:00.174Z,8.46
2023-05-09T04:04:31.079Z,8.46
2023-05-09T04:05:02.687Z,8.46
2023-05-09T04:05:32.947Z,8.46
2023-05-09T04:06:03.925Z,8.46
2023-05-09T04:06:35.124Z,8.36
2023-05-09T04:07:06.709Z,8.36
2023-05-09T04:07:37.239Z,8.36
2023-05-09T04:08:07.908Z,8.36
2023-05-09T04:08:39.138Z,8.36
2023-05-09T04:09:10.587Z,8.36
2023-05-09T04:09:41.356Z,8.36
2023-05-09T04:10:12.766Z,8.36
2023-05-09T04:10:43.287Z,8.36
2023-05-09T04:11:14.145Z,8.36
2023-05-09T04:11:45.488Z,8.36
2023-05-09T04:12:16.482Z,8.36
2023-05-09T04:12:47.337Z,8.26
2023-05-09T04:13:18.064Z,8.26
2023-05-09T04:13:49.447Z,8.26
2023-05-09T04:14:20.135Z,8.26
2023-05-09T04:14:51.083Z,8.26
2023-05-09T04:15:23.043Z,8.26
2023-05-09T04:15:53.204Z,8.26
2023-05-09T04:16:24.207Z,8.26
2023-05-09T04:16:55.087Z,8.26
2023-05-09T04:17:26.017Z,8.26
2023-05-09T04:17:57.323Z,8.26
2023-05-09T04:18:28.327Z,8.26
2023-05-09T04:18:59.438Z,8.26
2023-05-09T04:19:30.212Z,8.26
2023-05-09T04:20:01.611Z,8.26
2023-05-09T04:20:32.482Z,8.26
2023-05-09T04:21:03.022Z,8.26
2023-05-09T04:21:33.947Z,8.26
2023-05-09T04:22:05.064Z,8.26
2023-05-09T04:22:36.087Z,8.26
2023-05-09T04:23:07.064Z,8.26
2023-05-09T04:23:38.084Z,8.26
2023-05-09T04:24:09.017Z,8.26
2023-05-09T04:24:40.183Z,8.16
2023-05-09T04:25:14.381Z,8.16
2023-05-09T04:25:42.694Z,8.16
2023-05-09T04:26:14.565Z,8.16
2023-05-09T04:26:44.336Z,8.16
2023-05-09T04:27:16.170Z,8.16
2023-05-09T04:27:46.609Z,8.16
2023-05-09T04:28:17.228Z,8.16
2023-05-09T04:28:48.294Z,8.16
2023-05-09T04:29:19.153Z,8.16
2023-05-09T04:29:50.024Z,8.16
2023-05-09T04:30:22.065Z,8.26
2023-05-09T04:30:52.166Z,8.26
2023-05-09T04:31:23.147Z,8.26
2023-05-09T04:31:54.226Z,8.26
2023-05-09T04:32:25.156Z,8.26
2023-05-09T04:32:56.574Z,8.26
2023-05-09T04:33:27.220Z,8.26
2023-05-09T04:33:58.268Z,8.26
2023-05-09T04:34:29.282Z,8.26
2023-05-09T04:35:00.696Z,8.26
2023-05-09T04:35:31.463Z,8.26
2023-05-09T04:36:02.400Z,8.16
2023-05-09T04:36:33.594Z,8.16
2023-05-09T04:37:04.450Z,8.16
2023-05-09T04:37:35.093Z,8.16
2023-05-09T04:38:06.113Z,8.16
2023-05-09T04:38:37.485Z,8.16
2023-05-09T04:39:08.118Z,8.16
2023-05-09T04:39:39.188Z,8.16
2023-05-09T04:40:10.555Z,8.16
2023-05-09T04:40:41.154Z,8.16
2023-05-09T04:41:12.150Z,8.16
2023-05-09T04:41:43.301Z,8.16
2023-05-09T04:42:14.156Z,8.16
2023-05-09T04:42:45.498Z,8.16
2023-05-09T04:43:16.123Z,8.16
2023-05-09T04:43:47.354Z,8.16
2023-05-09T04:44:18.407Z,8.16
2023-05-09T04:44:49.151Z,8.16
2023-05-09T04:45:21.508Z,8.16
2023-05-09T04:45:51.295Z,8.16
2023-05-09T04:46:24.251Z,8.26
2023-05-09T04:46:53.311Z,8.26
2023-05-09T04:47:24.452Z,8.26
2023-05-09T04:47:55.126Z,8.26
2023-05-09T04:48:26.179Z,8.26
2023-05-09T04:48:57.190Z,8.26
2023-05-09T04:49:28.170Z,8.26
2023-05-09T04:49:59.182Z,8.26
2023-05-09T04:50:30.596Z,8.26
2023-05-09T04:51:01.228Z,8.26
2023-05-09T04:51:32.369Z,8.26
2023-05-09T04:52:03.490Z,8.26
2023-05-09T04:52:35.154Z,8.26
2023-05-09T04:53:05.230Z,8.26
2023-05-09T04:53:36.264Z,8.36
2023-05-09T04:54:07.440Z,8.46
2023-05-09T04:54:38.732Z,8.46
2023-05-09T04:55:09.911Z,8.46
2023-05-09T04:55:40.212Z,8.46
2023-05-09T04:56:11.391Z,8.46
2023-05-09T04:56:44.369Z,8.46
2023-05-09T04:57:17.916Z,8.46
2023-05-09T04:57:46.646Z,8.56
2023-05-09T04:58:15.292Z,8.56
2023-05-09T04:58:47.165Z,8.56
2023-05-09T04:59:17.242Z,8.56
2023-05-09T04:59:48.272Z,8.56
2023-05-09T05:00:20.342Z,8.56
2023-05-09T05:00:50.338Z,8.56
2023-05-09T05:01:21.432Z,8.56
2023-05-09T05:01:52.574Z,8.56
2023-05-09T05:02:23.830Z,8.66
2023-05-09T05:02:54.261Z,8.66
2023-05-09T05:03:25.649Z,8.66
2023-05-09T05:03:56.194Z,8.66
2023-05-09T05:04:27.222Z,8.66
2023-05-09T05:05:11.007Z,8.66
2023-05-09T05:05:30.322Z,8.66
2023-05-09T05:06:00.288Z,8.66
2023-05-09T05:06:31.384Z,8.66
2023-05-09T05:07:02.605Z,8.66
2023-05-09T05:07:34.019Z,8.66
2023-05-09T05:08:04.382Z,8.66
2023-05-09T05:08:35.439Z,8.66
2023-05-09T05:09:06.548Z,8.66
2023-05-09T05:09:37.585Z,8.76
2023-05-09T05:10:09.116Z,8.76
2023-05-09T05:10:39.792Z,8.76
2023-05-09T05:11:10.306Z,8.76
2023-05-09T05:11:47.363Z,8.76
2023-05-09T05:12:12.249Z,8.76
2023-05-09T05:12:43.489Z,8.86
2023-05-09T05:13:14.683Z,8.96
2023-05-09T05:13:45.671Z,8.96
2023-05-09T05:14:16.278Z,8.96
2023-05-09T05:14:47.310Z,8.96
2023-05-09T05:15:19.492Z,9.06
2023-05-09T05:15:49.305Z,9.06
2023-05-09T05:16:20.438Z,9.06
2023-05-09T05:16:51.473Z,9.16
2023-05-09T05:17:22.631Z,9.16
2023-05-09T05:17:53.418Z,9.16
2023-05-09T05:18:24.322Z,9.26
2023-05-09T05:18:55.287Z,9.26
2023-05-09T05:19:26.315Z,9.26
2023-05-09T05:19:57.458Z,9.26
2023-05-09T05:20:28.730Z,9.26
2023-05-09T05:20:59.289Z,9.26
2023-05-09T05:21:30.408Z,9.36
2023-05-09T05:22:01.214Z,9.36
2023-05-09T05:22:32.884Z,9.36
2023-05-09T05:23:03.564Z,9.46
2023-05-09T05:23:34.949Z,9.46
2023-05-09T05:24:05.639Z,9.46
2023-05-09T05:24:36.702Z,9.46
2023-05-09T05:25:07.852Z,9.46
2023-05-09T05:25:38.470Z,9.46
2023-05-09T05:26:09.306Z,9.46
2023-05-09T05:26:40.603Z,9.46
2023-05-09T05:27:11.770Z,9.46
2023-05-09T05:27:42.666Z,9.46
2023-05-09T05:28:15.317Z,9.56
2023-05-09T05:28:44.567Z,9.56
2023-05-09T05:29:17.971Z,9.56
2023-05-09T05:29:46.264Z,9.56
2023-05-09T05:30:18.429Z,9.66
2023-05-09T05:30:48.664Z,9.66
2023-05-09T05:31:19.611Z,9.66
2023-05-09T05:31:50.653Z,9.76
2023-05-09T05:32:21.368Z,9.76
2023-05-09T05:32:52.965Z,9.76
2023-05-09T05:33:23.826Z,9.76
2023-05-09T05:33:54.709Z,9.86
2023-05-09T05:34:26.036Z,9.86
2023-05-09T05:34:56.796Z,9.86
2023-05-09T05:35:27.744Z,9.76
2023-05-09T05:35:58.628Z,9.66
2023-05-09T05:36:29.830Z,9.66
2023-05-09T05:37:00.392Z,9.66
2023-05-09T05:37:31.879Z,9.66
2023-05-09T05:38:03.142Z,9.66
2023-05-09T05:38:33.591Z,9.66
2023-05-09T05:39:04.573Z,9.66
2023-05-09T05:39:35.499Z,9.66
2023-05-09T05:40:06.850Z,9.66
2023-05-09T05:40:37.395Z,9.66
2023-05-09T05:41:08.600Z,9.66
2023-05-09T05:41:39.684Z,9.66
2023-05-09T05:42:10.493Z,9.76
2023-05-09T05:42:41.722Z,9.76
2023-05-09T05:43:12.821Z,9.76
2023-05-09T05:43:43.725Z,9.76
2023-05-09T05:44:14.737Z,9.76
2023-05-09T05:44:45.306Z,9.76
2023-05-09T05:45:17.354Z,9.76
2023-05-09T05:45:47.374Z,9.66
2023-05-09T05:46:18.496Z,9.66
2023-05-09T05:46:49.404Z,9.66
2023-05-09T05:47:20.618Z,9.66
2023-05-09T05:47:51.736Z,9.66
2023-05-09T05:48:22.714Z,9.66
2023-05-09T05:48:53.886Z,9.66
2023-05-09T05:49:24.718Z,9.66
2023-05-09T05:49:55.682Z,9.56
2023-05-09T05:50:26.680Z,9.56
2023-05-09T05:50:57.738Z,9.56
2023-05-09T05:51:28.825Z,9.56
2023-05-09T05:51:59.409Z,9.56
2023-05-09T05:52:30.305Z,9.56
2023-05-09T05:53:01.746Z,9.56
2023-05-09T05:53:32.941Z,9.66
2023-05-09T05:54:03.580Z,9.66
2023-05-09T05:54:34.984Z,9.66
2023-05-09T05:55:06.086Z,9.66
2023-05-09T05:55:36.499Z,9.66
2023-05-09T05:56:07.887Z,9.66
2023-05-09T05:56:38.662Z,9.66
2023-05-09T05:57:09.298Z,9.66
2023-05-09T05:57:40.384Z,9.66
2023-05-09T05:58:11.420Z,9.66
2023-05-09T05:58:42.501Z,9.76
2023-05-09T05:59:13.838Z,9.76
2023-05-09T05:59:46.457Z,9.76
2023-05-09T06:00:16.507Z,9.76
2023-05-09T06:00:48.583Z,9.76
2023-05-09T06:01:17.921Z,9.86
2023-05-09T06:01:48.970Z,9.86
2023-05-09T06:02:19.876Z,9.96
2023-05-09T06:02:50.892Z,9.96
2023-05-09T06:03:22.300Z,10.06
2023-05-09T06:03:52.491Z,10.16
2023-05-09T06:04:23.704Z,10.16
2023-05-09T06:04:56.062Z,10.26
2023-05-09T06:05:26.312Z,10.46
2023-05-09T06:05:56.782Z,10.46
2023-05-09T06:06:28.076Z,10.46
2023-05-09T06:06:58.928Z,10.46
2023-05-09T06:07:29.687Z,10.36
2023-05-09T06:08:00.908Z,10.36
2023-05-09T06:08:31.885Z,10.36
2023-05-09T06:09:02.828Z,10.36
2023-05-09T06:09:33.815Z,10.36
2023-05-09T06:10:04.961Z,10.46
2023-05-09T06:10:35.563Z,10.46
2023-05-09T06:11:06.416Z,10.46
2023-05-09T06:11:38.132Z,10.46
2023-05-09T06:12:08.521Z,10.36
2023-05-09T06:12:39.858Z,10.26
2023-05-09T06:13:10.794Z,10.26
2023-05-09T06:13:41.697Z,10.26
2023-05-09T06:14:12.763Z,10.26
2023-05-09T06:14:43.510Z,10.26
2023-05-09T06:15:15.661Z,10.16
2023-05-09T06:15:45.538Z,10.16
2023-05-09T06:16:19.928Z,10.16
2023-05-09T06:16:47.786Z,10.26
2023-05-09T06:17:18.676Z,10.46
2023-05-09T06:17:49.813Z,10.46
2023-05-09T06:18:20.809Z,10.56
2023-05-09T06:18:54.904Z,10.66
2023-05-09T06:19:22.633Z,10.76
2023-05-09T06:19:53.638Z,10.76
2023-05-09T06:20:25.352Z,10.76
2023-05-09T06:20:55.528Z,10.76
2023-05-09T06:21:26.846Z,10.76
2023-05-09T06:21:57.912Z,10.76
2023-05-09T06:22:28.556Z,10.86
2023-05-09T06:22:59.436Z,10.86
2023-05-09T06:23:30.836Z,10.86
2023-05-09T06:24:10.233Z,10.86
2023-05-09T06:24:36.288Z,10.86
2023-05-09T06:25:03.826Z,10.66
2023-05-09T06:25:34.675Z,10.66
2023-05-09T06:26:05.601Z,10.66
2023-05-09T06:26:36.919Z,10.56
2023-05-09T06:27:07.814Z,10.56
2023-05-09T06:27:38.899Z,10.56
2023-05-09T06:28:09.523Z,10.56
2023-05-09T06:28:40.555Z,10.56
2023-05-09T06:29:11.565Z,10.56
2023-05-09T06:29:42.554Z,10.66
2023-05-09T06:30:24.621Z,10.66
2023-05-09T06:30:44.620Z,10.66
2023-05-09T06:31:17.566Z,10.76
2023-05-09T06:31:46.919Z,10.76
2023-05-09T06:32:18.825Z,10.86
2023-05-09T06:32:48.944Z,10.86
2023-05-09T06:33:20.493Z,10.86
2023-05-09T06:33:51.145Z,10.76
2023-05-09T06:34:22.099Z,10.76
2023-05-09T06:34:53.021Z,10.56
2023-05-09T06:35:23.950Z,10.26
2023-05-09T06:35:54.522Z,10.26
2023-05-09T06:36:25.786Z,10.26
2023-05-09T06:36:56.827Z,10.26
2023-05-09T06:37:27.731Z,10.26
2023-05-09T06:37:58.908Z,10.36
2023-05-09T06:38:29.629Z,10.36
2023-05-09T06:39:01.065Z,10.36
2023-05-09T06:39:31.910Z,10.36
2023-05-09T06:40:03.004Z,10.36
2023-05-09T06:40:33.612Z,10.36
2023-05-09T06:41:04.706Z,10.46
2023-05-09T06:41:35.996Z,10.46
2023-05-09T06:42:06.781Z,10.46
2023-05-09T06:42:37.864Z,10.46
2023-05-09T06:43:08.881Z,10.46
2023-05-09T06:43:40.182Z,10.46
2023-05-09T06:44:11.185Z,10.46
2023-05-09T06:44:41.682Z,10.46
2023-05-09T06:45:13.704Z,10.56
2023-05-09T06:45:43.744Z,10.56
2023-05-09T06:46:15.035Z,10.66
2023-05-09T06:46:45.894Z,10.66
2023-05-09T06:47:16.638Z,10.66
2023-05-09T06:47:47.831Z,10.66
2023-05-09T06:48:18.700Z,10.56
2023-05-09T06:48:49.966Z,10.46
2023-05-09T06:49:21.259Z,10.46
2023-05-09T06:49:51.730Z,10.46
2023-05-09T06:50:23.191Z,10.46
2023-05-09T06:50:53.829Z,10.56
2023-05-09T06:51:24.957Z,10.56
2023-05-09T06:51:55.865Z,10.56